createdAt,value
2017-06-17T00:00:55.758Z,1019.97
2017-06-17T00:01:57.612Z,1019.94
2017-06-17T00:02:59.469Z,1019.95
2017-06-17T00:04:01.267Z,1019.97
2017-06-17T00:05:03.067Z,1019.95
2017-06-17T00:06:04.951Z,1019.91
2017-06-17T00:07:06.805Z,1019.91
2017-06-17T00:08:08.669Z,1019.93
2017-06-17T00:09:22.821Z,1019.96
2017-06-17T00:10:24.697Z,1020.01
2017-06-17T00:11:26.557Z,1020.00
2017-06-17T00:12:28.417Z,1019.94
2017-06-17T00:13:30.235Z,1020.01
2017-06-17T00:14:32.032Z,1020.06
2017-06-17T00:15:33.918Z,1020.06
2017-06-17T00:16:35.800Z,1020.02
2017-06-17T00:17:37.680Z,1020.10
2017-06-17T00:18:51.816Z,1020.02
2017-06-17T00:19:53.699Z,1020.10
2017-06-17T00:20:55.582Z,1020.05
2017-06-17T00:21:57.464Z,1020.11
2017-06-17T00:22:59.286Z,1020.13
2017-06-17T00:24:01.071Z,1020.06
2017-06-17T00:25:02.935Z,1020.09
2017-06-17T00:26:04.816Z,1020.17
2017-06-17T00:27:06.684Z,1020.12
2017-06-17T00:28:20.834Z,1020.09
2017-06-17T00:29:22.695Z,1020.10
2017-06-17T00:30:24.574Z,1020.15
2017-06-17T00:31:26.426Z,1020.11
2017-06-17T00:32:28.222Z,1020.13
2017-06-17T00:33:30.019Z,1020.12
2017-06-17T00:34:31.886Z,1020.15
2017-06-17T00:35:33.764Z,1020.28
2017-06-17T00:36:35.623Z,1020.16
2017-06-17T00:37:49.750Z,1020.14
2017-06-17T00:38:51.610Z,1020.11
2017-06-17T00:39:53.476Z,1020.11
2017-06-17T00:40:55.355Z,1020.07
2017-06-17T00:41:57.176Z,1020.11
2017-06-17T00:42:58.993Z,1020.11
2017-06-17T00:44:00.847Z,1020.15
2017-06-17T00:45:02.712Z,1020.14
2017-06-17T00:46:04.573Z,1020.09
2017-06-17T00:47:18.724Z,1020.16
2017-06-17T00:48:20.587Z,1020.18
2017-06-17T00:49:22.444Z,1020.09
2017-06-17T00:50:24.308Z,1020.13
2017-06-17T00:51:26.133Z,1020.19
2017-06-17T00:52:27.947Z,1020.16
2017-06-17T00:53:29.810Z,1020.21
2017-06-17T00:54:31.693Z,1020.15
2017-06-17T00:55:33.571Z,1020.13
2017-06-17T00:56:47.703Z,1020.15
2017-06-17T00:57:49.561Z,1020.14
2017-06-17T00:58:51.425Z,1020.18
2017-06-17T00:59:53.308Z,1020.11
2017-06-17T01:00:55.103Z,1020.17
2017-06-17T01:01:56.900Z,1020.13
2017-06-17T01:02:58.782Z,1020.11
2017-06-17T01:04:00.633Z,1020.14
2017-06-17T01:05:02.496Z,1020.14
2017-06-17T01:06:16.629Z,1020.11
2017-06-17T01:07:18.507Z,1020.12
2017-06-17T01:08:20.365Z,1020.14
2017-06-17T01:09:22.227Z,1020.14
2017-06-17T01:10:24.045Z,1020.13
2017-06-17T01:11:25.843Z,1020.15
2017-06-17T01:12:27.702Z,1020.15
2017-06-17T01:13:29.561Z,1020.17
2017-06-17T01:14:31.423Z,1020.19
2017-06-17T01:15:45.555Z,1020.19
2017-06-17T01:16:47.415Z,1020.13
2017-06-17T01:17:49.296Z,1020.25
2017-06-17T01:18:51.155Z,1020.15
2017-06-17T01:19:52.970Z,1020.17
2017-06-17T01:20:54.766Z,1020.18
2017-06-17T01:21:56.627Z,1020.17
2017-06-17T01:22:58.485Z,1020.14
2017-06-17T01:24:00.346Z,1020.17
2017-06-17T01:25:14.476Z,1020.17
2017-06-17T01:26:16.339Z,1020.22
2017-06-17T01:27:18.221Z,1020.12
2017-06-17T01:28:20.104Z,1020.17
2017-06-17T01:29:21.894Z,1020.14
2017-06-17T01:30:23.693Z,1020.23
2017-06-17T01:31:25.579Z,1020.17
2017-06-17T01:32:27.458Z,1020.23
2017-06-17T01:33:29.322Z,1020.20
2017-06-17T01:34:43.488Z,1020.15
2017-06-17T01:35:45.350Z,1020.26
2017-06-17T01:36:47.213Z,1020.20
2017-06-17T01:37:49.075Z,1020.29
2017-06-17T01:38:50.877Z,1020.20
2017-06-17T01:39:52.694Z,1020.20
2017-06-17T01:40:54.552Z,1020.21
2017-06-17T01:41:56.432Z,1020.14
2017-06-17T01:42:58.289Z,1020.16
2017-06-17T01:44:12.422Z,1020.19
2017-06-17T01:45:14.303Z,1020.12
2017-06-17T01:46:16.160Z,1020.23
2017-06-17T01:47:18.019Z,1020.18
2017-06-17T01:48:19.818Z,1020.25
2017-06-17T01:49:21.614Z,1020.16
2017-06-17T01:50:23.478Z,1020.15
2017-06-17T01:51:25.336Z,1020.16
2017-06-17T01:52:27.200Z,1020.13
2017-06-17T01:53:41.349Z,1020.06
2017-06-17T01:54:43.216Z,1020.07
2017-06-17T01:55:45.078Z,1020.11
2017-06-17T01:56:46.941Z,1020.17
2017-06-17T01:57:48.759Z,1020.11
2017-06-17T01:58:50.560Z,1020.09
2017-06-17T01:59:52.419Z,1020.17
2017-06-17T02:00:54.276Z,1020.07
2017-06-17T02:01:56.131Z,1019.98
2017-06-17T02:03:10.267Z,1020.03
2017-06-17T02:04:12.148Z,1019.99
2017-06-17T02:05:14.031Z,1020.08
2017-06-17T02:06:15.909Z,1019.97
2017-06-17T02:07:17.710Z,1020.03
2017-06-17T02:08:19.513Z,1020.06
2017-06-17T02:09:21.394Z,1020.05
2017-06-17T02:10:23.278Z,1020.06
2017-06-17T02:11:25.149Z,1020.02
2017-06-17T02:12:39.284Z,1020.07
2017-06-17T02:13:41.149Z,1020.05
2017-06-17T02:14:43.005Z,1020.08
2017-06-17T02:15:44.864Z,1020.05
2017-06-17T02:16:46.662Z,1020.06
2017-06-17T02:17:48.462Z,1020.05
2017-06-17T02:18:50.328Z,1020.01
2017-06-17T02:19:52.208Z,1020.01
2017-06-17T02:20:54.066Z,1020.08
2017-06-17T02:22:08.226Z,1020.02
2017-06-17T02:23:10.076Z,1020.02
2017-06-17T02:24:11.961Z,1020.00
2017-06-17T02:25:13.841Z,1020.07
2017-06-17T02:26:15.636Z,1020.10
2017-06-17T02:27:17.439Z,1020.04
2017-06-17T02:28:19.301Z,1019.99
2017-06-17T02:29:21.157Z,1020.05
2017-06-17T02:30:23.026Z,1020.07
2017-06-17T02:31:37.176Z,1019.99
2017-06-17T02:32:39.032Z,1020.03
2017-06-17T02:33:40.901Z,1020.08
2017-06-17T02:34:42.778Z,1020.09
2017-06-17T02:35:44.583Z,1020.14
2017-06-17T02:36:46.409Z,1020.10
2017-06-17T02:37:48.294Z,1020.13
2017-06-17T02:38:50.173Z,1020.07
2017-06-17T02:39:52.034Z,1020.04
2017-06-17T02:41:06.221Z,1020.02
2017-06-17T02:42:08.095Z,1020.04
2017-06-17T02:43:09.962Z,1020.10
2017-06-17T02:44:11.826Z,1020.08
2017-06-17T02:45:13.647Z,1020.13
2017-06-17T02:46:15.469Z,1020.12
2017-06-17T02:47:17.333Z,1020.12
2017-06-17T02:48:19.199Z,1020.16
2017-06-17T02:49:21.078Z,1020.20
2017-06-17T02:50:35.211Z,1020.20
2017-06-17T02:51:37.070Z,1020.15
2017-06-17T02:52:38.937Z,1020.17
2017-06-17T02:53:40.800Z,1020.17
2017-06-17T02:54:42.598Z,1020.15
2017-06-17T02:55:44.407Z,1020.13
2017-06-17T02:56:46.292Z,1020.20
2017-06-17T02:57:48.151Z,1020.24
2017-06-17T02:58:50.020Z,1020.20
2017-06-17T03:00:04.171Z,1020.30
2017-06-17T03:01:06.034Z,1020.27
2017-06-17T03:02:07.899Z,1020.28
2017-06-17T03:03:09.765Z,1020.34
2017-06-17T03:04:11.565Z,1020.34
2017-06-17T03:05:13.366Z,1020.39
2017-06-17T03:06:15.233Z,1020.33
2017-06-17T03:07:17.118Z,1020.30
2017-06-17T03:08:18.994Z,1020.33
2017-06-17T03:09:33.133Z,1020.43
2017-06-17T03:10:35.018Z,1020.33
2017-06-17T03:11:36.903Z,1020.45
2017-06-17T03:12:38.788Z,1020.44
2017-06-17T03:13:40.613Z,1020.41
2017-06-17T03:14:42.430Z,1020.44
2017-06-17T03:15:44.295Z,1020.44
2017-06-17T03:16:46.159Z,1020.46
2017-06-17T03:17:48.043Z,1020.48
2017-06-17T03:19:02.176Z,1020.56
2017-06-17T03:20:04.033Z,1020.53
2017-06-17T03:21:05.900Z,1020.61
2017-06-17T03:22:07.771Z,1020.52
2017-06-17T03:23:09.594Z,1020.54
2017-06-17T03:24:11.417Z,1020.52
2017-06-17T03:25:13.306Z,1020.53
2017-06-17T03:26:15.189Z,1020.57
2017-06-17T03:27:17.063Z,1020.55
2017-06-17T03:28:31.200Z,1020.55
2017-06-17T03:29:33.069Z,1020.58
2017-06-17T03:30:34.956Z,1020.58
2017-06-17T03:31:36.844Z,1020.56
2017-06-17T03:32:38.638Z,1020.53
2017-06-17T03:33:40.444Z,1020.54
2017-06-17T03:34:42.323Z,1020.60
2017-06-17T03:35:44.191Z,1020.48
2017-06-17T03:36:46.070Z,1020.52
2017-06-17T03:38:00.202Z,1020.51
2017-06-17T03:39:02.070Z,1020.48
2017-06-17T03:40:03.955Z,1020.53
2017-06-17T03:41:05.822Z,1020.53
2017-06-17T03:42:07.624Z,1020.54
2017-06-17T03:43:09.426Z,1020.70
2017-06-17T03:44:11.294Z,1020.57
2017-06-17T03:45:13.154Z,1020.60
2017-06-17T03:46:15.022Z,1020.60
2017-06-17T03:47:29.181Z,1020.62
2017-06-17T03:48:31.046Z,1020.59
2017-06-17T03:49:32.935Z,1020.63
2017-06-17T03:50:34.812Z,1020.65
2017-06-17T03:51:36.618Z,1020.60
2017-06-17T03:52:38.444Z,1020.61
2017-06-17T03:53:40.329Z,1020.65
2017-06-17T03:54:42.215Z,1020.57
2017-06-17T03:55:44.068Z,1020.59
2017-06-17T03:56:58.237Z,1020.58
2017-06-17T03:58:00.102Z,1020.65
2017-06-17T03:59:01.967Z,1020.59
2017-06-17T04:00:03.834Z,1020.63
2017-06-17T04:01:05.666Z,1020.72
2017-06-17T04:02:07.484Z,1020.70
2017-06-17T04:03:09.291Z,1020.68
2017-06-17T04:04:11.116Z,1020.72
2017-06-17T04:05:12.921Z,1020.72
2017-06-17T04:06:27.053Z,1020.70
2017-06-17T04:07:28.913Z,1020.73
2017-06-17T04:08:30.785Z,1020.74
2017-06-17T04:09:32.650Z,1020.69
2017-06-17T04:10:34.475Z,1020.71
2017-06-17T04:11:36.302Z,1020.76
2017-06-17T04:12:38.187Z,1020.75
2017-06-17T04:13:40.055Z,1020.70
2017-06-17T04:14:41.923Z,1020.73
2017-06-17T04:15:56.054Z,1020.84
2017-06-17T04:16:57.925Z,1020.92
2017-06-17T04:17:59.833Z,1020.93
2017-06-17T04:19:01.693Z,1020.87
2017-06-17T04:20:03.518Z,1020.83
2017-06-17T04:21:05.325Z,1020.84
2017-06-17T04:22:07.217Z,1020.85
2017-06-17T04:23:09.106Z,1020.84
2017-06-17T04:24:10.989Z,1020.85
2017-06-17T04:25:25.123Z,1020.80
2017-06-17T04:26:26.996Z,1020.76
2017-06-17T04:27:28.879Z,1020.83
2017-06-17T04:28:30.748Z,1020.82
2017-06-17T04:29:32.571Z,1020.79
2017-06-17T04:30:34.396Z,1020.80
2017-06-17T04:31:36.285Z,1020.75
2017-06-17T04:32:38.148Z,1020.85
2017-06-17T04:33:40.018Z,1020.86
2017-06-17T04:34:54.177Z,1020.83
2017-06-17T04:35:56.064Z,1020.81
2017-06-17T04:36:57.923Z,1020.96
2017-06-17T04:37:59.790Z,1020.91
2017-06-17T04:39:01.591Z,1020.99
2017-06-17T04:40:03.400Z,1020.89
2017-06-17T04:41:05.267Z,1020.88
2017-06-17T04:42:07.153Z,1020.90
2017-06-17T04:43:09.042Z,1021.00
2017-06-17T04:44:23.177Z,1020.99
2017-06-17T04:45:25.040Z,1020.93
2017-06-17T04:46:26.907Z,1021.02
2017-06-17T04:47:28.777Z,1020.87
2017-06-17T04:48:30.601Z,1020.99
2017-06-17T04:49:32.407Z,1021.07
2017-06-17T04:50:34.293Z,1020.90
2017-06-17T04:51:36.189Z,1020.92
2017-06-17T04:52:38.052Z,1020.93
2017-06-17T04:53:52.211Z,1020.96
2017-06-17T04:54:54.067Z,1020.81
2017-06-17T04:55:55.963Z,1020.87
2017-06-17T04:56:57.831Z,1020.79
2017-06-17T04:57:59.657Z,1020.86
2017-06-17T04:59:01.486Z,1020.92
2017-06-17T05:00:03.355Z,1020.98
2017-06-17T05:01:05.241Z,1020.89
2017-06-17T05:02:07.129Z,1020.89
2017-06-17T05:03:21.265Z,1020.87
2017-06-17T05:04:23.149Z,1020.94
2017-06-17T05:05:25.038Z,1020.91
2017-06-17T05:06:26.925Z,1020.94
2017-06-17T05:07:28.729Z,1020.81
2017-06-17T05:08:30.554Z,1020.84
2017-06-17T05:09:32.424Z,1020.83
2017-06-17T05:10:34.316Z,1020.83
2017-06-17T05:11:36.195Z,1020.88
2017-06-17T05:12:50.336Z,1020.86
2017-06-17T05:13:52.216Z,1020.86
2017-06-17T05:14:54.074Z,1020.84
2017-06-17T05:15:55.974Z,1020.78
2017-06-17T05:16:57.774Z,1020.78
2017-06-17T05:17:59.577Z,1020.79
2017-06-17T05:19:01.403Z,1020.82
2017-06-17T05:20:03.273Z,1020.83
2017-06-17T05:21:05.153Z,1020.87
2017-06-17T05:22:19.293Z,1020.91
2017-06-17T05:23:21.159Z,1020.81
2017-06-17T05:24:23.049Z,1020.86
2017-06-17T05:25:24.933Z,1020.61
2017-06-17T05:26:26.736Z,1020.85
2017-06-17T05:27:28.564Z,1020.86
2017-06-17T05:28:30.450Z,1020.78
2017-06-17T05:29:32.329Z,1020.92
2017-06-17T05:30:34.201Z,1020.88
2017-06-17T05:31:48.333Z,1021.06
2017-06-17T05:32:50.217Z,1021.12
2017-06-17T05:33:52.086Z,1021.10
2017-06-17T05:34:53.979Z,1020.97
2017-06-17T05:35:55.801Z,1021.02
2017-06-17T05:36:57.609Z,1021.00
2017-06-17T05:37:59.492Z,1021.00
2017-06-17T05:39:01.361Z,1020.97
2017-06-17T05:40:03.244Z,1021.03
2017-06-17T05:41:17.385Z,1021.02
2017-06-17T05:42:19.269Z,1020.99
2017-06-17T05:43:21.140Z,1021.01
2017-06-17T05:44:23.028Z,1020.98
2017-06-17T05:45:24.853Z,1020.98
2017-06-17T05:46:26.681Z,1021.04
2017-06-17T05:47:28.548Z,1021.13
2017-06-17T05:48:30.438Z,1021.02
2017-06-17T05:49:32.323Z,1021.06
2017-06-17T05:50:46.479Z,1021.04
2017-06-17T05:51:48.367Z,1021.02
2017-06-17T05:52:50.255Z,1021.04
2017-06-17T05:53:52.136Z,1021.01
2017-06-17T05:54:53.946Z,1021.08
2017-06-17T05:55:55.773Z,1020.98
2017-06-17T05:56:57.634Z,1021.05
2017-06-17T05:57:59.499Z,1020.97
2017-06-17T05:59:01.368Z,1021.08
2017-06-17T06:00:15.508Z,1021.03
2017-06-17T06:01:17.368Z,1021.11
2017-06-17T06:02:19.239Z,1021.04
2017-06-17T06:03:21.105Z,1021.10
2017-06-17T06:04:22.907Z,1021.13
2017-06-17T06:05:24.712Z,1021.08
2017-06-17T06:06:26.597Z,1021.11
2017-06-17T06:07:28.558Z,1021.05
2017-06-17T06:08:30.406Z,1021.14
2017-06-17T06:09:44.564Z,1021.09
2017-06-17T06:10:46.448Z,1021.00
2017-06-17T06:11:48.321Z,1021.03
2017-06-17T06:12:50.210Z,1021.06
2017-06-17T06:13:52.041Z,1021.15
2017-06-17T06:14:53.933Z,1021.16
2017-06-17T06:15:55.821Z,1021.11
2017-06-17T06:16:57.712Z,1021.13
2017-06-17T06:17:59.567Z,1021.11
2017-06-17T06:19:13.752Z,1021.16
2017-06-17T06:20:15.615Z,1021.21
2017-06-17T06:21:17.484Z,1021.19
2017-06-17T06:22:19.347Z,1021.20
2017-06-17T06:23:21.155Z,1021.13
2017-06-17T06:24:22.991Z,1021.14
2017-06-17T06:25:24.878Z,1021.15
2017-06-17T06:26:26.746Z,1021.14
2017-06-17T06:27:28.613Z,1021.15
2017-06-17T06:28:42.780Z,1021.17
2017-06-17T06:29:44.638Z,1021.21
2017-06-17T06:30:46.533Z,1021.18
2017-06-17T06:31:48.423Z,1021.19
2017-06-17T06:32:50.251Z,1021.16
2017-06-17T06:33:52.053Z,1021.29
2017-06-17T06:34:53.918Z,1021.42
2017-06-17T06:35:55.784Z,1021.45
2017-06-17T06:36:57.661Z,1021.36
2017-06-17T06:38:11.804Z,1021.31
2017-06-17T06:39:13.671Z,1021.29
2017-06-17T06:40:15.565Z,1021.42
2017-06-17T06:41:17.450Z,1021.47
2017-06-17T06:42:19.258Z,1021.41
2017-06-17T06:43:21.065Z,1021.30
2017-06-17T06:44:22.931Z,1021.26
2017-06-17T06:45:24.794Z,1021.24
2017-06-17T06:46:26.657Z,1021.25
2017-06-17T06:47:40.815Z,1021.18
2017-06-17T06:48:42.665Z,1021.24
2017-06-17T06:49:44.556Z,1021.25
2017-06-17T06:50:46.472Z,1021.27
2017-06-17T06:51:48.267Z,1021.34
2017-06-17T06:52:50.072Z,1021.44
2017-06-17T06:53:51.922Z,1021.56
2017-06-17T06:54:53.749Z,1021.46
2017-06-17T06:55:55.634Z,1021.45
2017-06-17T06:57:09.777Z,1021.33
2017-06-17T06:58:11.644Z,1021.39
2017-06-17T06:59:13.530Z,1021.46
2017-06-17T07:00:15.399Z,1021.62
2017-06-17T07:01:17.208Z,1021.58
2017-06-17T07:02:19.034Z,1021.56
2017-06-17T07:03:20.919Z,1021.50
2017-06-17T07:04:22.791Z,1021.44
2017-06-17T07:05:24.686Z,1021.35
2017-06-17T07:06:38.843Z,1021.46
2017-06-17T07:07:40.727Z,1021.47
2017-06-17T07:08:42.594Z,1021.50
2017-06-17T07:09:44.472Z,1021.53
2017-06-17T07:10:46.296Z,1021.63
2017-06-17T07:11:48.101Z,1021.72
2017-06-17T07:12:49.974Z,1021.69
2017-06-17T07:13:51.869Z,1021.64
2017-06-17T07:14:53.757Z,1021.67
2017-06-17T07:16:07.893Z,1021.78
2017-06-17T07:17:09.762Z,1021.56
2017-06-17T07:18:11.652Z,1021.62
2017-06-17T07:19:13.579Z,1021.73
2017-06-17T07:20:15.383Z,1021.66
2017-06-17T07:21:17.195Z,1021.75
2017-06-17T07:22:19.064Z,1021.76
2017-06-17T07:23:20.958Z,1021.68
2017-06-17T07:24:22.823Z,1021.71
2017-06-17T07:25:36.962Z,1021.63
2017-06-17T07:26:38.901Z,1021.80
2017-06-17T07:27:40.774Z,1021.72
2017-06-17T07:28:42.659Z,1021.63
2017-06-17T07:29:44.473Z,1021.67
2017-06-17T07:30:46.279Z,1021.70
2017-06-17T07:31:48.170Z,1021.65
2017-06-17T07:32:50.060Z,1021.65
2017-06-17T07:33:51.947Z,1021.70
2017-06-17T07:35:06.110Z,1021.71
2017-06-17T07:36:07.984Z,1021.73
2017-06-17T07:37:09.873Z,1021.65
2017-06-17T07:38:11.765Z,1021.65
2017-06-17T07:39:13.573Z,1021.78
2017-06-17T07:40:15.379Z,1021.87
2017-06-17T07:41:17.327Z,1021.94
2017-06-17T07:42:19.218Z,1022.06
2017-06-17T07:43:21.107Z,1021.93
2017-06-17T07:44:35.321Z,1021.89
2017-06-17T07:45:37.188Z,1021.99
2017-06-17T07:46:39.061Z,1021.93
2017-06-17T07:47:40.948Z,1021.88
2017-06-17T07:48:42.756Z,1021.85
2017-06-17T07:49:44.574Z,1021.86
2017-06-17T07:50:46.508Z,1021.79
2017-06-17T07:51:48.377Z,1021.77
2017-06-17T07:52:50.243Z,1021.86
2017-06-17T07:54:04.395Z,1021.88
2017-06-17T07:55:06.263Z,1021.97
2017-06-17T07:56:08.132Z,1021.98
2017-06-17T07:57:10.004Z,1021.95
2017-06-17T07:58:11.827Z,1022.06
2017-06-17T07:59:13.653Z,1021.99
2017-06-17T08:00:15.530Z,1021.94
2017-06-17T08:01:17.421Z,1021.86
2017-06-17T08:02:19.284Z,1021.84
2017-06-17T08:03:33.428Z,1021.81
2017-06-17T08:04:35.311Z,1021.84
2017-06-17T08:05:37.208Z,1021.82
2017-06-17T08:06:39.080Z,1021.82
2017-06-17T08:07:40.909Z,1021.92
2017-06-17T08:08:42.741Z,1021.85
2017-06-17T08:09:44.625Z,1021.76
2017-06-17T08:10:46.497Z,1021.72
2017-06-17T08:11:48.396Z,1021.86
2017-06-17T08:13:02.576Z,1021.98
2017-06-17T08:14:04.441Z,1021.91
2017-06-17T08:15:06.384Z,1021.95
2017-06-17T08:16:08.294Z,1021.86
2017-06-17T08:17:10.122Z,1021.82
2017-06-17T08:18:11.955Z,1021.90
2017-06-17T08:19:13.845Z,1021.85
2017-06-17T08:20:15.733Z,1021.76
2017-06-17T08:21:17.620Z,1021.73
2017-06-17T08:22:31.760Z,1021.61
2017-06-17T08:23:33.625Z,1021.56
2017-06-17T08:24:35.494Z,1021.58
2017-06-17T08:25:37.370Z,1021.54
2017-06-17T08:26:39.197Z,1021.62
2017-06-17T08:27:41.027Z,1021.63
2017-06-17T08:28:42.892Z,1021.72
2017-06-17T08:29:44.783Z,1021.76
2017-06-17T08:30:46.642Z,1021.99
2017-06-17T08:32:00.784Z,1022.18
2017-06-17T08:33:02.647Z,1022.11
2017-06-17T08:34:04.518Z,1022.00
2017-06-17T08:35:06.411Z,1021.98
2017-06-17T08:36:08.221Z,1022.02
2017-06-17T08:37:10.046Z,1021.94
2017-06-17T08:38:11.937Z,1022.04
2017-06-17T08:39:13.820Z,1021.95
2017-06-17T08:40:15.690Z,1021.94
2017-06-17T08:41:29.828Z,1021.98
2017-06-17T08:42:31.695Z,1022.08
2017-06-17T08:43:33.569Z,1022.07
2017-06-17T08:44:35.438Z,1022.09
2017-06-17T08:45:37.270Z,1021.90
2017-06-17T08:46:39.103Z,1021.99
2017-06-17T08:47:40.989Z,1021.99
2017-06-17T08:48:42.879Z,1022.08
2017-06-17T08:49:44.777Z,1022.20
2017-06-17T08:50:58.917Z,1022.20
2017-06-17T08:52:00.797Z,1022.24
2017-06-17T08:53:02.675Z,1022.21
2017-06-17T08:54:04.536Z,1022.15
2017-06-17T08:55:06.353Z,1022.17
2017-06-17T08:56:08.187Z,1022.05
2017-06-17T08:57:10.074Z,1022.08
2017-06-17T08:58:11.939Z,1022.08
2017-06-17T08:59:13.833Z,1022.27
2017-06-17T09:00:27.993Z,1022.14
2017-06-17T09:01:29.887Z,1022.22
2017-06-17T09:02:31.769Z,1022.19
2017-06-17T09:03:33.664Z,1022.32
2017-06-17T09:04:35.500Z,1022.16
2017-06-17T09:05:37.343Z,1022.14
2017-06-17T09:06:39.199Z,1022.04
2017-06-17T09:07:41.070Z,1022.15
2017-06-17T09:08:42.958Z,1022.00
2017-06-17T09:09:57.127Z,1022.10
2017-06-17T09:10:59.007Z,1022.23
2017-06-17T09:12:00.889Z,1022.32
2017-06-17T09:13:02.762Z,1022.37
2017-06-17T09:14:04.594Z,1022.43
2017-06-17T09:15:06.436Z,1022.39
2017-06-17T09:16:08.321Z,1022.26
2017-06-17T09:17:10.195Z,1022.26
2017-06-17T09:18:12.082Z,1022.26
2017-06-17T09:19:26.239Z,1022.11
2017-06-17T09:20:28.110Z,1022.07
2017-06-17T09:21:29.996Z,1022.13
2017-06-17T09:22:31.871Z,1022.09
2017-06-17T09:23:33.677Z,1022.01
2017-06-17T09:24:35.485Z,1022.25
2017-06-17T09:25:37.373Z,1022.18
2017-06-17T09:26:39.247Z,1022.22
2017-06-17T09:27:41.113Z,1022.25
2017-06-17T09:28:55.285Z,1022.12
2017-06-17T09:29:57.164Z,1022.40
2017-06-17T09:30:59.055Z,1022.13
2017-06-17T09:32:00.946Z,1022.22
2017-06-17T09:33:02.754Z,1022.28
2017-06-17T09:34:04.564Z,1022.18
2017-06-17T09:35:06.435Z,1022.22
2017-06-17T09:36:08.318Z,1022.29
2017-06-17T09:37:10.187Z,1022.24
2017-06-17T09:38:24.339Z,1022.23
2017-06-17T09:39:26.223Z,1022.47
2017-06-17T09:40:28.097Z,1022.47
2017-06-17T09:41:29.986Z,1022.49
2017-06-17T09:42:31.796Z,1022.48
2017-06-17T09:43:33.626Z,1022.58
2017-06-17T09:44:35.496Z,1022.47
2017-06-17T09:45:37.380Z,1022.56
2017-06-17T09:46:39.247Z,1022.79
2017-06-17T09:47:53.399Z,1022.65
2017-06-17T09:48:55.534Z,1022.51
2017-06-17T09:49:57.429Z,1022.45
2017-06-17T09:50:59.348Z,1022.39
2017-06-17T09:52:01.288Z,1022.37
2017-06-17T09:53:03.364Z,1022.56
2017-06-17T09:54:05.537Z,1022.30
2017-06-17T09:55:07.695Z,1022.26
2017-06-17T09:56:09.635Z,1022.37
2017-06-17T09:57:23.771Z,1022.51
2017-06-17T09:58:25.637Z,1022.56
2017-06-17T09:59:27.510Z,1022.73
2017-06-17T10:00:29.408Z,1022.43
2017-06-17T10:01:31.217Z,1022.56
2017-06-17T10:02:33.024Z,1022.57
2017-06-17T10:03:34.896Z,1022.55
2017-06-17T10:04:36.783Z,1022.54
2017-06-17T10:05:38.650Z,1022.61
2017-06-17T10:06:52.790Z,1022.65
2017-06-17T10:07:54.665Z,1022.56
2017-06-17T10:08:56.550Z,1022.58
2017-06-17T10:09:58.441Z,1022.70
2017-06-17T10:11:00.242Z,1022.44
2017-06-17T10:12:02.056Z,1022.58
2017-06-17T10:13:03.918Z,1022.73
2017-06-17T10:14:05.793Z,1022.71
2017-06-17T10:15:07.675Z,1022.52
2017-06-17T10:16:21.824Z,1022.39
2017-06-17T10:17:23.711Z,1022.60
2017-06-17T10:18:25.602Z,1022.71
2017-06-17T10:19:27.491Z,1022.64
2017-06-17T10:20:29.299Z,1022.77
2017-06-17T10:21:31.107Z,1022.67
2017-06-17T10:22:32.983Z,1022.51
2017-06-17T10:23:34.872Z,1022.59
2017-06-17T10:24:36.763Z,1022.60
2017-06-17T10:25:50.953Z,1022.61
2017-06-17T10:26:52.846Z,1022.70
2017-06-17T10:27:54.740Z,1022.78
2017-06-17T10:28:56.629Z,1022.73
2017-06-17T10:29:58.443Z,1022.79
2017-06-17T10:31:00.251Z,1022.89
2017-06-17T10:32:02.120Z,1022.77
2017-06-17T10:33:04.006Z,1022.67
2017-06-17T10:34:05.879Z,1022.57
2017-06-17T10:35:20.018Z,1022.59
2017-06-17T10:36:21.881Z,1022.72
2017-06-17T10:37:23.753Z,1022.64
2017-06-17T10:38:25.638Z,1022.80
2017-06-17T10:39:27.475Z,1022.83
2017-06-17T10:40:29.278Z,1022.92
2017-06-17T10:41:31.145Z,1022.86
2017-06-17T10:42:33.015Z,1022.98
2017-06-17T10:43:34.902Z,1022.78
2017-06-17T10:44:49.064Z,1022.87
2017-06-17T10:45:50.931Z,1022.87
2017-06-17T10:46:52.819Z,1022.87
2017-06-17T10:47:54.689Z,1022.84
2017-06-17T10:48:56.500Z,1022.67
2017-06-17T10:49:58.329Z,1022.80
2017-06-17T10:51:00.202Z,1022.77
2017-06-17T10:52:02.094Z,1022.79
2017-06-17T10:53:03.987Z,1022.77
2017-06-17T10:54:18.148Z,1022.84
2017-06-17T10:55:20.065Z,1022.87
2017-06-17T10:56:21.958Z,1022.98
2017-06-17T10:57:23.850Z,1022.95
2017-06-17T10:58:25.682Z,1022.91
2017-06-17T10:59:27.516Z,1022.89
2017-06-17T11:00:29.404Z,1022.86
2017-06-17T11:01:31.275Z,1022.77
2017-06-17T11:02:33.139Z,1022.75
2017-06-17T11:03:47.282Z,1022.61
2017-06-17T11:04:49.174Z,1022.53
2017-06-17T11:05:51.066Z,1022.48
2017-06-17T11:06:52.940Z,1022.60
2017-06-17T11:07:54.772Z,1022.62
2017-06-17T11:08:56.609Z,1022.55
2017-06-17T11:09:58.497Z,1022.46
2017-06-17T11:11:00.392Z,1022.54
2017-06-17T11:12:02.282Z,1022.56
2017-06-17T11:13:16.479Z,1022.58
2017-06-17T11:14:18.368Z,1022.62
2017-06-17T11:15:20.238Z,1022.67
2017-06-17T11:16:22.115Z,1022.67
2017-06-17T11:17:23.920Z,1022.69
2017-06-17T11:18:25.731Z,1022.59
2017-06-17T11:19:27.602Z,1022.44
2017-06-17T11:20:29.469Z,1022.20
2017-06-17T11:21:31.337Z,1022.18
2017-06-17T11:22:45.481Z,1022.22
2017-06-17T11:23:47.341Z,1022.25
2017-06-17T11:24:49.216Z,1022.26
2017-06-17T11:25:51.104Z,1022.11
2017-06-17T11:26:52.914Z,1022.40
2017-06-17T11:27:54.747Z,1022.92
2017-06-17T11:28:56.643Z,1022.60
2017-06-17T11:29:58.530Z,1022.81
2017-06-17T11:31:00.397Z,1022.83
2017-06-17T11:32:14.558Z,1022.66
2017-06-17T11:33:16.427Z,1022.75
2017-06-17T11:34:18.298Z,1022.65
2017-06-17T11:35:20.191Z,1022.69
2017-06-17T11:36:22.000Z,1022.32
2017-06-17T11:37:23.813Z,1022.21
2017-06-17T11:38:25.703Z,1022.20
2017-06-17T11:39:27.594Z,1022.11
2017-06-17T11:40:29.476Z,1022.12
2017-06-17T11:41:43.626Z,1022.19
2017-06-17T11:42:45.526Z,1022.33
2017-06-17T11:43:47.425Z,1022.45
2017-06-17T11:44:49.297Z,1022.36
2017-06-17T11:45:51.100Z,1022.26
2017-06-17T11:46:52.914Z,1022.19
2017-06-17T11:47:54.823Z,1022.46
2017-06-17T11:48:56.719Z,1022.27
2017-06-17T11:49:58.622Z,1022.35
2017-06-17T11:51:12.801Z,1022.40
2017-06-17T11:52:14.713Z,1022.25
2017-06-17T11:53:16.584Z,1022.53
2017-06-17T11:54:18.514Z,1022.19
2017-06-17T11:55:20.401Z,1022.17
2017-06-17T11:56:22.274Z,1022.14
2017-06-17T11:57:24.194Z,1022.04
2017-06-17T11:58:26.213Z,1022.05
2017-06-17T11:59:28.157Z,1021.98
2017-06-17T12:00:42.294Z,1022.01
2017-06-17T12:01:44.167Z,1022.07
2017-06-17T12:02:46.058Z,1022.11
2017-06-17T12:03:47.952Z,1022.26
2017-06-17T12:04:49.785Z,1022.36
2017-06-17T12:05:51.647Z,1022.30
2017-06-17T12:06:53.534Z,1022.20
2017-06-17T12:07:55.405Z,1022.20
2017-06-17T12:08:57.345Z,1022.28
2017-06-17T12:10:11.546Z,1022.50
2017-06-17T12:11:13.522Z,1022.73
2017-06-17T12:12:15.465Z,1022.64
2017-06-17T12:13:17.360Z,1022.61
2017-06-17T12:14:19.190Z,1022.64
2017-06-17T12:15:21.022Z,1022.71
2017-06-17T12:16:22.913Z,1022.45
2017-06-17T12:17:24.777Z,1022.37
2017-06-17T12:18:26.653Z,1022.39
2017-06-17T12:19:40.793Z,1022.45
2017-06-17T12:20:42.691Z,1022.40
2017-06-17T12:21:44.577Z,1022.24
2017-06-17T12:22:46.467Z,1022.08
2017-06-17T12:23:48.291Z,1022.14
2017-06-17T12:24:50.107Z,1022.00
2017-06-17T12:25:51.997Z,1021.96
2017-06-17T12:26:53.887Z,1021.93
2017-06-17T12:27:55.784Z,1021.92
2017-06-17T12:29:09.935Z,1021.83
2017-06-17T12:30:11.794Z,1021.72
2017-06-17T12:31:13.668Z,1021.82
2017-06-17T12:32:15.549Z,1021.86
2017-06-17T12:33:17.360Z,1021.80
2017-06-17T12:34:19.386Z,1021.77
2017-06-17T12:35:21.404Z,1021.64
2017-06-17T12:36:23.276Z,1021.77
2017-06-17T12:37:25.157Z,1021.80
2017-06-17T12:38:39.306Z,1021.74
2017-06-17T12:39:41.172Z,1021.62
2017-06-17T12:40:43.208Z,1021.83
2017-06-17T12:41:45.071Z,1021.83
2017-06-17T12:42:46.879Z,1021.66
2017-06-17T12:43:48.689Z,1021.75
2017-06-17T12:44:50.585Z,1021.75